Time;durP1;ratioP1;P1;durP2;ratioP2;P2;SDS_P1;SDS_P2;PMS_P1;PMS_P2;Temp;Humidity;BMP_temperature;BMP_pressure;BME280_temperature;BME280_humidity;BME280_pressure;Samples;Min_cycle;Max_cycle;Signal;HPM_P1;HPM_P2
2023/01/16 00:00:59;;;;;;;10.73;5.25;;;4.50;99.90;;;;;;4982785;28;20492;-84
2023/01/16 00:03:25;;;;;;;11.15;5.05;;;4.50;99.90;;;;;;4967787;28;20503;-83
2023/01/16 00:05:51;;;;;;;11.00;5.38;;;4.50;99.90;;;;;;4982538;28;20049;-83
2023/01/16 00:08:16;;;;;;;9.75;5.68;;;4.50;99.90;;;;;;4973109;28;20040;-84
2023/01/16 00:10:44;;;;;;;10.98;5.63;;;4.60;99.90;;;;;;4982250;28;20554;-84
2023/01/16 00:13:13;;;;;;;10.55;5.60;;;4.50;99.90;;;;;;5006940;28;20121;-84
2023/01/16 00:15:47;;;;;;;12.90;6.50;;;4.60;99.90;;;;;;4967289;28;20116;-84
2023/01/16 00:18:13;;;;;;;11.73;6.03;;;4.50;99.90;;;;;;5012625;28;20043;-83
2023/01/16 00:20:39;;;;;;;11.73;6.43;;;4.60;99.90;;;;;;4983310;28;20497;-84
2023/01/16 00:23:05;;;;;;;12.20;6.80;;;4.50;99.90;;;;;;5007712;28;20035;-84
2023/01/16 00:25:30;;;;;;;13.38;6.82;;;4.60;99.90;;;;;;4985193;28;20039;-84
2023/01/16 00:27:56;;;;;;;17.30;6.50;;;4.60;99.90;;;;;;4966825;28;20038;-84
2023/01/16 00:30:22;;;;;;;14.23;7.05;;;4.60;99.90;;;;;;4997355;28;20045;-84
2023/01/16 00:32:48;;;;;;;13.05;6.45;;;4.50;99.90;;;;;;4970756;28;20152;-84
2023/01/16 00:35:14;;;;;;;11.23;6.18;;;4.50;99.90;;;;;;4972715;28;20891;-83
2023/01/16 00:37:39;;;;;;;11.20;6.57;;;4.50;99.90;;;;;;4987155;28;20069;-83
2023/01/16 00:40:06;;;;;;;10.52;5.63;;;4.40;99.90;;;;;;5020399;28;20038;-83
2023/01/16 00:42:31;;;;;;;12.00;6.07;;;4.30;99.90;;;;;;4993567;28;20101;-84
2023/01/16 00:44:57;;;;;;;12.10;6.00;;;4.30;99.90;;;;;;4985538;28;20035;-84
2023/01/16 00:47:22;;;;;;;12.68;5.63;;;4.30;99.90;;;;;;4984380;28;20039;-84
2023/01/16 00:49:48;;;;;;;9.73;5.10;;;4.30;99.90;;;;;;4997227;28;20050;-84
2023/01/16 00:52:13;;;;;;;9.57;5.72;;;4.30;99.90;;;;;;4976749;28;20062;-84
2023/01/16 00:54:39;;;;;;;12.15;5.70;;;4.20;99.90;;;;;;5008957;28;20405;-84
2023/01/16 00:57:05;;;;;;;12.00;5.43;;;4.20;99.90;;;;;;4971434;28;20095;-84
2023/01/16 00:59:30;;;;;;;13.05;5.82;;;4.20;99.90;;;;;;4983194;28;20047;-84
2023/01/16 01:01:56;;;;;;;9.55;5.13;;;4.10;99.90;;;;;;4969466;28;20084;-84
2023/01/16 01:04:22;;;;;;;9.80;5.50;;;4.10;99.90;;;;;;4998320;28;20049;-84
2023/01/16 01:06:47;;;;;;;8.82;5.05;;;4.00;99.90;;;;;;4973806;28;20097;-84
2023/01/16 01:09:13;;;;;;;8.82;5.13;;;4.00;99.90;;;;;;4981693;28;20038;-84
2023/01/16 01:11:38;;;;;;;14.23;5.80;;;3.90;99.90;;;;;;4985965;28;20526;-84
2023/01/16 01:14:04;;;;;;;12.68;5.40;;;3.90;99.90;;;;;;4982729;28;20126;-84
2023/01/16 01:16:30;;;;;;;11.07;5.50;;;3.90;99.90;;;;;;4984911;28;20077;-84
2023/01/16 01:18:56;;;;;;;10.05;5.55;;;3.90;99.90;;;;;;5022993;28;20042;-84
2023/01/16 01:21:21;;;;;;;12.85;5.57;;;3.90;99.90;;;;;;4968886;28;20050;-83
2023/01/16 01:23:47;;;;;;;11.20;4.82;;;3.90;99.90;;;;;;4970262;28;20045;-84
2023/01/16 01:26:15;;;;;;;11.27;4.97;;;3.90;99.90;;;;;;5003921;28;20071;-84
2023/01/16 01:28:41;;;;;;;9.35;4.70;;;3.90;99.90;;;;;;4976014;28;20042;-84
2023/01/16 01:31:10;;;;;;;8.30;4.80;;;4.00;99.90;;;;;;5038141;28;20038;-84
2023/01/16 01:33:36;;;;;;;10.98;4.93;;;4.00;99.90;;;;;;5000431;28;20048;-84
2023/01/16 01:36:03;;;;;;;10.95;5.13;;;4.00;99.90;;;;;;4991057;28;20042;-84
2023/01/16 01:38:29;;;;;;;9.48;4.53;;;4.00;99.90;;;;;;4998620;28;20034;-84
2023/01/16 01:40:55;;;;;;;9.35;4.25;;;4.00;99.90;;;;;;4971956;28;20065;-84
2023/01/16 01:43:21;;;;;;;9.98;5.22;;;4.00;99.90;;;;;;5017647;28;20046;-84
2023/01/16 01:45:53;;;;;;;8.70;4.57;;;4.00;99.90;;;;;;4998784;28;20096;-84
2023/01/16 01:48:21;;;;;;;9.88;4.82;;;4.00;99.90;;;;;;4970069;28;20069;-84
2023/01/16 01:51:01;;;;;;;9.98;4.38;;;4.00;99.90;;;;;;4995336;28;20137;-84
2023/01/16 01:53:35;;;;;;;10.07;5.05;;;4.00;99.90;;;;;;5013148;28;20073;-84
2023/01/16 01:56:19;;;;;;;10.40;4.57;;;4.00;99.90;;;;;;4981077;28;20096;-84
2023/01/16 01:58:49;;;;;;;9.32;4.45;;;4.00;99.90;;;;;;4975244;28;20115;-84
2023/01/16 02:01:14;;;;;;;11.80;4.95;;;4.00;99.90;;;;;;4986638;28;20046;-84
2023/01/16 02:03:45;;;;;;;10.52;4.47;;;4.00;99.90;;;;;;4985829;28;20042;-84
2023/01/16 02:06:19;;;;;;;11.73;4.85;;;4.00;99.90;;;;;;5007159;28;20043;-84
2023/01/16 02:08:46;;;;;;;10.43;4.47;;;4.00;99.90;;;;;;4992669;28;20034;-84
2023/01/16 02:11:26;;;;;;;9.10;4.50;;;4.00;99.90;;;;;;4967952;28;20034;-84
2023/01/16 02:14:02;;;;;;;10.13;4.88;;;4.00;99.90;;;;;;4967524;28;20042;-84
2023/01/16 02:19:31;;;;;;;;;;;3.90;99.90;;;;;;4999345;28;20053;-84
2023/01/16 02:22:07;;;;;;;10.90;4.05;;;3.90;99.90;;;;;;4988173;28;20945;-84
2023/01/16 02:25:02;;;;;;;8.98;4.07;;;3.80;99.90;;;;;;4993888;28;20036;-84
2023/01/16 02:27:59;;;;;;;11.00;4.53;;;3.80;99.90;;;;;;4990017;28;20449;-84
2023/01/16 02:30:49;;;;;;;12.07;4.25;;;3.80;99.90;;;;;;5020963;28;20123;-84
2023/01/16 02:33:38;;;;;;;10.23;4.70;;;3.80;99.90;;;;;;4976911;28;20407;-84
2023/01/16 02:36:15;;;;;;;10.60;4.55;;;3.80;99.90;;;;;;5041407;28;20100;-84
2023/01/16 02:38:55;;;;;;;7.78;4.55;;;3.80;99.90;;;;;;4975355;28;20039;-84
2023/01/16 02:41:41;;;;;;;9.00;4.50;;;3.80;99.90;;;;;;4977678;28;20609;-84
2023/01/16 02:44:32;;;;;;;9.50;4.53;;;3.90;99.90;;;;;;5050926;27;20109;-84
2023/01/16 02:47:22;;;;;;;14.32;4.88;;;3.90;99.90;;;;;;5012375;28;20450;-84
2023/01/16 02:50:08;;;;;;;9.38;4.60;;;4.00;99.90;;;;;;4967697;28;20078;-84
2023/01/16 02:52:38;;;;;;;9.43;4.68;;;4.00;99.90;;;;;;5000361;28;20062;-84
2023/01/16 02:55:16;;;;;;;10.23;5.00;;;4.00;99.90;;;;;;5000652;28;20052;-84
2023/01/16 02:57:47;;;;;;;11.68;4.55;;;4.00;99.90;;;;;;4998735;28;20043;-84
2023/01/16 03:00:19;;;;;;;14.98;4.88;;;4.10;99.90;;;;;;5005381;28;20038;-84
2023/01/16 03:02:45;;;;;;;9.10;4.60;;;4.10;99.90;;;;;;4996507;28;20042;-84
2023/01/16 03:05:11;;;;;;;10.40;4.75;;;4.00;99.90;;;;;;4967532;28;20077;-84
2023/01/16 03:08:15;;;;;;;9.07;4.50;;;4.00;99.90;;;;;;4968113;28;20418;-84
2023/01/16 03:11:09;;;;;;;10.57;4.93;;;4.00;99.90;;;;;;4967983;28;20042;-84
2023/01/16 03:13:41;;;;;;;11.25;4.57;;;4.00;99.90;;;;;;4988042;28;20042;-84
2023/01/16 03:16:17;;;;;;;8.55;4.80;;;4.00;99.90;;;;;;4994896;28;20150;-84
2023/01/16 03:18:48;;;;;;;10.13;4.95;;;4.00;99.90;;;;;;4976978;28;20047;-84
2023/01/16 03:21:33;;;;;;;12.18;5.07;;;4.00;99.90;;;;;;4984513;28;20089;-84
2023/01/16 03:24:03;;;;;;;;;;;4.00;99.90;;;;;;5023332;28;20428;-84
2023/01/16 03:26:36;;;;;;;9.32;4.75;;;4.10;99.90;;;;;;4979831;28;19929;-84
2023/01/16 03:29:22;;;;;;;12.13;5.15;;;4.00;99.90;;;;;;4984935;28;20504;-84
2023/01/16 03:32:13;;;;;;;10.63;4.43;;;4.00;99.90;;;;;;5024874;28;20032;-84
2023/01/16 03:34:45;;;;;;;10.98;4.60;;;4.00;99.90;;;;;;4977791;28;20071;-84
2023/01/16 03:37:14;;;;;;;12.40;4.75;;;4.00;99.90;;;;;;4996731;28;20375;-84
2023/01/16 03:39:48;;;;;;;10.45;5.28;;;4.00;99.90;;;;;;4974486;28;20079;-84
2023/01/16 03:42:24;;;;;;;12.18;5.47;;;4.00;99.90;;;;;;4985160;28;20089;-83
2023/01/16 03:45:01;;;;;;;11.88;5.32;;;4.00;99.90;;;;;;4989677;28;20041;-84
2023/01/16 03:47:34;;;;;;;9.43;4.85;;;4.00;99.90;;;;;;4990780;28;20084;-84
2023/01/16 03:50:04;;;;;;;11.73;5.55;;;4.00;99.90;;;;;;4977433;28;20482;-84
2023/01/16 03:52:42;;;;;;;9.77;5.30;;;4.00;99.90;;;;;;4968372;28;20043;-84
2023/01/16 03:55:35;;;;;;;10.00;5.10;;;4.10;99.90;;;;;;4978354;28;20054;-84
2023/01/16 03:58:15;;;;;;;9.93;5.38;;;4.00;99.90;;;;;;4995074;28;20336;-84
2023/01/16 04:00:52;;;;;;;8.65;4.70;;;4.10;99.90;;;;;;4998629;28;20038;-84
2023/01/16 04:03:33;;;;;;;9.57;5.15;;;4.10;99.90;;;;;;5014354;28;20074;-84
2023/01/16 04:06:26;;;;;;;11.73;5.10;;;4.10;99.90;;;;;;5012121;28;20088;-84
2023/01/16 04:08:54;;;;;;;11.45;5.25;;;4.10;99.90;;;;;;4983204;28;20488;-83
2023/01/16 04:11:21;;;;;;;15.63;5.60;;;4.10;99.90;;;;;;4971210;28;20043;-84
2023/01/16 04:13:49;;;;;;;9.20;4.95;;;4.10;99.90;;;;;;4990880;28;20042;-84
2023/01/16 04:16:18;;;;;;;10.15;5.25;;;4.10;99.90;;;;;;5015302;28;20044;-84
2023/01/16 04:18:45;;;;;;;12.40;5.82;;;4.10;99.90;;;;;;4995538;28;20038;-84
2023/01/16 04:21:10;;;;;;;12.90;5.82;;;4.10;99.90;;;;;;4979459;28;20042;-84
2023/01/16 04:23:36;;;;;;;10.73;5.93;;;4.10;99.90;;;;;;5003013;28;20048;-84
2023/01/16 04:26:02;;;;;;;13.63;6.47;;;4.00;99.90;;;;;;5016908;28;20383;-84
2023/01/16 04:28:27;;;;;;;10.98;5.90;;;4.10;99.90;;;;;;4992536;28;20466;-84
2023/01/16 04:30:53;;;;;;;13.32;6.50;;;4.10;99.90;;;;;;4976705;28;20034;-84
2023/01/16 04:33:18;;;;;;;12.80;5.88;;;4.10;99.90;;;;;;4978921;28;20049;-84
2023/01/16 04:35:44;;;;;;;15.10;6.90;;;4.10;99.90;;;;;;4969523;28;20074;-84
2023/01/16 04:38:11;;;;;;;14.70;6.80;;;4.10;99.90;;;;;;5040572;28;20575;-84
2023/01/16 04:40:38;;;;;;;17.10;6.93;;;4.10;99.90;;;;;;5022351;28;20504;-83
2023/01/16 04:43:03;;;;;;;16.05;7.47;;;4.10;99.90;;;;;;5025690;28;20097;-84
2023/01/16 04:45:29;;;;;;;17.15;7.00;;;4.20;99.90;;;;;;4985415;28;20042;-84
2023/01/16 04:47:55;;;;;;;13.98;7.30;;;4.20;99.90;;;;;;4988257;28;20046;-84
2023/01/16 04:50:20;;;;;;;16.08;7.22;;;4.20;99.90;;;;;;4966555;28;20038;-84
2023/01/16 04:52:46;;;;;;;16.58;7.32;;;4.20;99.90;;;;;;5011669;28;20042;-84
2023/01/16 04:55:12;;;;;;;18.10;7.93;;;4.20;99.90;;;;;;4982066;28;20069;-84
2023/01/16 04:57:39;;;;;;;14.60;8.73;;;4.20;99.90;;;;;;5006303;28;20494;-84
2023/01/16 05:00:06;;;;;;;16.60;7.88;;;4.20;99.90;;;;;;4983718;28;20034;-84
2023/01/16 05:02:32;;;;;;;16.73;8.10;;;4.30;99.90;;;;;;4995786;28;20040;-84
2023/01/16 05:04:57;;;;;;;17.25;8.18;;;4.20;99.90;;;;;;4969461;28;20049;-84
2023/01/16 05:07:26;;;;;;;18.02;8.70;;;4.20;99.90;;;;;;4989462;28;20159;-84
2023/01/16 05:09:52;;;;;;;19.15;8.43;;;4.20;99.90;;;;;;4967274;28;20046;-84
2023/01/16 05:12:17;;;;;;;17.20;7.95;;;4.20;99.90;;;;;;5046835;28;20038;-84
2023/01/16 05:14:43;;;;;;;18.15;8.93;;;4.20;99.90;;;;;;5013258;28;20039;-84
2023/01/16 05:17:08;;;;;;;19.95;9.45;;;4.20;99.90;;;;;;4992893;28;20251;-83
2023/01/16 05:19:34;;;;;;;17.92;8.98;;;4.20;99.90;;;;;;4981132;28;20046;-84
2023/01/16 05:21:59;;;;;;;17.30;8.95;;;4.20;99.90;;;;;;4980236;28;20133;-84
2023/01/16 05:24:25;;;;;;;17.30;9.18;;;4.10;99.90;;;;;;5010651;28;20138;-83
2023/01/16 05:26:51;;;;;;;20.58;9.75;;;4.10;99.90;;;;;;4998459;28;20069;-84
2023/01/16 05:29:16;;;;;;;21.63;9.55;;;4.00;99.90;;;;;;4997916;28;20040;-84
2023/01/16 05:31:42;;;;;;;17.50;9.40;;;4.00;99.90;;;;;;4971015;28;20490;-84
2023/01/16 05:34:09;;;;;;;19.25;8.85;;;4.00;99.90;;;;;;4973986;28;20058;-84
2023/01/16 05:36:34;;;;;;;21.83;9.77;;;4.00;99.90;;;;;;5014749;28;20506;-84
2023/01/16 05:39:01;;;;;;;18.98;9.30;;;4.00;99.90;;;;;;4998699;28;20050;-84
2023/01/16 05:41:26;;;;;;;18.20;9.25;;;3.90;99.90;;;;;;5015293;28;20062;-84
2023/01/16 05:43:52;;;;;;;16.50;8.68;;;3.90;99.90;;;;;;4975196;28;20089;-84
2023/01/16 05:46:18;;;;;;;18.48;9.10;;;3.80;99.90;;;;;;4996793;28;20487;-84
2023/01/16 05:48:43;;;;;;;17.67;9.38;;;3.70;99.90;;;;;;4975561;28;20061;-84
2023/01/16 05:51:09;;;;;;;18.08;9.23;;;3.70;99.90;;;;;;4982776;28;20125;-84
2023/01/16 05:53:35;;;;;;;19.92;9.07;;;3.60;99.90;;;;;;4984884;28;20053;-84
2023/01/16 05:56:12;;;;;;;21.85;10.18;;;3.60;99.90;;;;;;4970295;28;20049;-84
2023/01/16 05:58:38;;;;;;;19.80;9.70;;;3.60;99.90;;;;;;4986109;28;20084;-84
2023/01/16 06:01:04;;;;;;;22.58;10.05;;;3.60;99.90;;;;;;4967060;28;20040;-84
2023/01/16 06:03:29;;;;;;;17.73;8.48;;;3.60;99.90;;;;;;4966524;28;20051;-84
2023/01/16 06:05:55;;;;;;;20.10;8.48;;;3.60;99.90;;;;;;4992790;28;20050;-84
2023/01/16 06:08:21;;;;;;;20.90;9.95;;;3.60;99.90;;;;;;4972293;28;20492;-84
2023/01/16 06:10:47;;;;;;;21.33;10.57;;;3.60;99.90;;;;;;5010728;28;20040;-84
2023/01/16 06:13:14;;;;;;;20.85;10.85;;;3.70;99.90;;;;;;4988982;28;20043;-84
2023/01/16 06:15:41;;;;;;;21.90;9.85;;;3.70;99.90;;;;;;5016962;28;20054;-84
2023/01/16 06:18:07;;;;;;;19.17;10.27;;;3.70;99.90;;;;;;4989956;28;20060;-84
2023/01/16 06:20:32;;;;;;;21.13;10.15;;;3.70;99.90;;;;;;4978681;28;20140;-84
2023/01/16 06:22:58;;;;;;;23.27;10.80;;;3.80;99.90;;;;;;5012528;27;20039;-84
2023/01/16 06:25:24;;;;;;;22.98;10.77;;;3.80;99.90;;;;;;4985294;28;20472;-84
2023/01/16 06:27:50;;;;;;;21.02;9.57;;;3.80;99.90;;;;;;4987906;28;20034;-84
2023/01/16 06:30:17;;;;;;;21.90;9.85;;;3.80;99.90;;;;;;4991137;28;20072;-84
2023/01/16 06:32:43;;;;;;;20.50;10.93;;;3.80;99.90;;;;;;4993822;28;20499;-84
2023/01/16 06:35:09;;;;;;;22.13;10.57;;;3.70;99.90;;;;;;4981397;28;20031;-84
2023/01/16 06:37:34;;;;;;;23.98;10.38;;;3.70;99.90;;;;;;5002702;28;20113;-84
2023/01/16 06:40:01;;;;;;;22.17;10.63;;;3.60;99.90;;;;;;5048123;28;20040;-84
2023/01/16 06:42:27;;;;;;;25.38;10.02;;;3.60;99.90;;;;;;5007577;28;20050;-84
2023/01/16 06:44:53;;;;;;;20.40;9.57;;;3.60;99.90;;;;;;4989388;28;20031;-84
2023/01/16 06:47:19;;;;;;;22.02;10.90;;;3.50;99.90;;;;;;4968170;28;20509;-84
2023/01/16 06:49:44;;;;;;;19.20;9.48;;;3.50;99.90;;;;;;4994666;28;20087;-84
2023/01/16 06:52:10;;;;;;;20.42;9.75;;;3.50;99.90;;;;;;4966207;28;20038;-84
2023/01/16 06:54:35;;;;;;;18.65;9.57;;;3.50;99.90;;;;;;5007097;28;20042;-84
2023/01/16 06:57:01;;;;;;;18.85;9.18;;;3.50;99.90;;;;;;4983003;28;20391;-84
2023/01/16 06:59:26;;;;;;;19.83;8.90;;;3.40;99.90;;;;;;4998387;28;20046;-84
2023/01/16 07:01:52;;;;;;;22.05;9.57;;;3.40;99.90;;;;;;4981375;28;20520;-84
2023/01/16 07:04:18;;;;;;;16.52;8.82;;;3.40;99.90;;;;;;4997137;28;20088;-84
2023/01/16 07:06:43;;;;;;;18.08;9.00;;;3.30;99.90;;;;;;4969933;28;20042;-84
2023/01/16 07:09:09;;;;;;;18.27;9.02;;;3.40;99.90;;;;;;5026322;28;20031;-84
2023/01/16 07:11:35;;;;;;;18.83;9.00;;;3.40;99.90;;;;;;4994494;28;20038;-85
2023/01/16 07:22:38;;;;;;;18.30;8.63;;;3.30;99.90;;;;;;5024852;28;20588;-84
2023/01/16 07:25:09;;;;;;;21.38;8.80;;;3.30;99.90;;;;;;4974486;28;20062;-84
2023/01/16 07:27:35;;;;;;;20.02;9.77;;;3.30;99.90;;;;;;4991717;28;20071;-84
2023/01/16 07:30:01;;;;;;;19.02;8.20;;;3.20;99.90;;;;;;4993576;28;20479;-84
2023/01/16 07:32:26;;;;;;;21.90;9.48;;;3.20;99.90;;;;;;4976366;28;20038;-84
2023/01/16 07:34:52;;;;;;;18.40;7.63;;;3.30;99.90;;;;;;4978016;28;20038;-84
2023/01/16 07:37:17;;;;;;;15.75;7.85;;;3.20;99.90;;;;;;4995252;28;20087;-84
2023/01/16 07:39:43;;;;;;;17.55;8.07;;;3.30;99.90;;;;;;4996667;28;20044;-84
2023/01/16 07:42:09;;;;;;;19.75;7.93;;;3.20;99.90;;;;;;4984250;28;20062;-84
2023/01/16 07:44:34;;;;;;;13.13;7.18;;;3.30;99.90;;;;;;4985898;28;20040;-84
2023/01/16 07:47:00;;;;;;;22.77;8.60;;;3.30;99.90;;;;;;4986529;28;20046;-85
2023/01/16 07:49:26;;;;;;;16.15;7.07;;;3.30;99.90;;;;;;5031904;28;20474;-84
2023/01/16 07:51:51;;;;;;;15.65;7.43;;;3.30;99.90;;;;;;5025995;28;20078;-84
2023/01/16 07:54:17;;;;;;;17.27;7.35;;;3.30;99.90;;;;;;4974134;28;20034;-84
2023/01/16 07:56:43;;;;;;;15.93;7.47;;;3.30;99.90;;;;;;4974912;28;20046;-84
2023/01/16 07:59:08;;;;;;;12.77;6.60;;;3.30;99.90;;;;;;4972523;28;20084;-84
2023/01/16 08:01:34;;;;;;;16.77;6.72;;;3.30;99.90;;;;;;5016908;28;20511;-84
2023/01/16 08:04:00;;;;;;;15.50;6.60;;;3.40;99.90;;;;;;5011875;28;20046;-84
2023/01/16 08:06:26;;;;;;;17.25;7.05;;;3.40;99.90;;;;;;5007134;28;20050;-83
2023/01/16 08:08:51;;;;;;;14.50;6.75;;;3.40;99.90;;;;;;5020808;28;20506;-85
2023/01/16 08:11:35;;;;;;;16.38;6.78;;;3.40;99.90;;;;;;4988567;28;20084;-85
2023/01/16 08:14:05;;;;;;;14.30;6.10;;;3.40;99.90;;;;;;5029696;28;20034;-84
2023/01/16 08:16:31;;;;;;;14.93;7.07;;;3.50;99.90;;;;;;4981621;28;20044;-84
2023/01/16 08:18:57;;;;;;;16.67;7.10;;;3.50;99.90;;;;;;4988465;28;20034;-85
2023/01/16 08:21:22;;;;;;;16.55;6.72;;;3.50;99.90;;;;;;4990059;28;20046;-84
2023/01/16 08:23:48;;;;;;;13.13;6.03;;;3.50;99.90;;;;;;5003401;28;20042;-84
2023/01/16 08:26:14;;;;;;;17.42;7.80;;;3.50;99.90;;;;;;5023411;28;20073;-84
2023/01/16 08:28:40;;;;;;;13.18;6.90;;;3.50;99.90;;;;;;4988479;28;20039;-84
2023/01/16 08:31:11;;;;;;;13.43;6.90;;;3.50;99.90;;;;;;5017699;28;20046;-85
2023/01/16 08:33:37;;;;;;;17.90;7.35;;;3.50;99.90;;;;;;5009901;28;20128;-85
2023/01/16 08:36:05;;;;;;;14.43;6.88;;;3.50;99.90;;;;;;4991511;28;20035;-85
2023/01/16 08:38:31;;;;;;;16.05;7.65;;;3.60;99.90;;;;;;5026605;28;20048;-85
2023/01/16 08:40:57;;;;;;;12.95;6.93;;;3.60;99.90;;;;;;4976163;28;20152;-85
2023/01/16 08:51:56;;;;;;;16.15;6.32;;;3.70;99.90;;;;;;5016862;28;20038;-84
2023/01/16 08:54:22;;;;;;;15.07;6.82;;;3.80;99.90;;;;;;4969634;28;20038;-85
2023/01/16 08:56:47;;;;;;;15.38;6.72;;;3.80;99.90;;;;;;5018337;28;20038;-85
2023/01/16 08:59:14;;;;;;;19.52;6.90;;;3.90;99.90;;;;;;4986571;28;20042;-85
2023/01/16 09:01:41;;;;;;;13.63;6.88;;;3.90;99.90;;;;;;4983758;28;20072;-84
2023/01/16 09:04:07;;;;;;;14.30;6.50;;;3.90;99.90;;;;;;5022828;28;20535;-85
2023/01/16 09:06:35;;;;;;;14.63;6.85;;;3.90;99.90;;;;;;5009656;28;20713;-85
2023/01/16 09:09:03;;;;;;;12.60;6.00;;;3.90;99.90;;;;;;4987486;28;20423;-85
2023/01/16 09:14:12;;;;;;;15.68;6.78;;;4.00;99.90;;;;;;4984374;28;20048;-85
2023/01/16 09:16:38;;;;;;;15.13;7.22;;;4.00;99.90;;;;;;4994399;28;20049;-85
2023/01/16 09:19:04;;;;;;;12.05;6.20;;;4.00;99.90;;;;;;4994704;28;20073;-85
2023/01/16 09:21:30;;;;;;;11.20;5.95;;;4.10;99.90;;;;;;5002008;28;20457;-85
2023/01/16 09:23:55;;;;;;;14.02;6.32;;;4.00;99.90;;;;;;4971601;28;20046;-85
2023/01/16 09:26:21;;;;;;;16.95;6.93;;;4.10;99.90;;;;;;5006276;28;20696;-85
2023/01/16 09:28:46;;;;;;;11.77;6.30;;;4.10;99.90;;;;;;5020504;28;20066;-84
2023/01/16 09:31:12;;;;;;;14.82;6.35;;;4.10;99.90;;;;;;4986450;28;20046;-84
2023/01/16 09:33:38;;;;;;;11.20;5.90;;;4.10;99.90;;;;;;4992122;28;20038;-84
2023/01/16 09:36:04;;;;;;;13.85;6.63;;;4.20;99.90;;;;;;5005177;28;20331;-84
2023/01/16 09:38:30;;;;;;;10.45;5.47;;;4.10;99.90;;;;;;4986328;28;20036;-85
2023/01/16 09:40:58;;;;;;;12.75;6.18;;;4.20;99.90;;;;;;5009982;28;20106;-84
2023/01/16 09:43:35;;;;;;;12.10;5.90;;;4.20;99.90;;;;;;5010182;28;20054;-85
2023/01/16 09:46:15;;;;;;;13.02;5.18;;;4.20;99.90;;;;;;4993068;28;20092;-85
2023/01/16 09:48:56;;;;;;;11.75;4.15;;;4.20;99.90;;;;;;4994127;28;20031;-85
2023/01/16 09:58:34;;;;;;;8.07;4.50;;;4.30;99.90;;;;;;5008767;28;20536;-84
2023/01/16 10:00:26;;;;;;;11.65;5.50;;;4.30;99.90;;;;;;4984200;28;20046;-84
2023/01/16 10:02:52;;;;;;;8.77;4.28;;;4.30;99.90;;;;;;4990040;28;20038;-84
2023/01/16 10:05:18;;;;;;;10.52;5.40;;;4.30;99.90;;;;;;4969791;28;20479;-85
2023/01/16 10:08:11;;;;;;;8.82;4.50;;;4.30;99.90;;;;;;4966442;28;20043;-84
2023/01/16 10:10:43;;;;;;;7.07;4.22;;;4.40;99.90;;;;;;4996247;28;20038;-84
2023/01/16 10:13:28;;;;;;;11.93;5.60;;;4.40;99.90;;;;;;4973266;28;20046;-84
2023/01/16 10:16:14;;;;;;;8.05;4.30;;;4.40;99.90;;;;;;5012223;28;20103;-84
2023/01/16 10:18:58;;;;;;;10.25;5.20;;;4.30;99.90;;;;;;5016619;27;20042;-84
2023/01/16 10:21:47;;;;;;;6.55;3.78;;;4.40;99.90;;;;;;5029944;28;20061;-84
2023/01/16 10:24:37;;;;;;;9.73;4.45;;;4.40;99.90;;;;;;4983741;28;20051;-85
2023/01/16 10:27:35;;;;;;;11.68;5.10;;;4.40;99.90;;;;;;4985263;28;20093;-84
2023/01/16 10:30:14;;;;;;;13.15;5.95;;;4.30;99.90;;;;;;4971647;28;20072;-84
2023/01/16 10:33:06;;;;;;;8.05;4.57;;;4.30;99.90;;;;;;4991218;28;20039;-84
2023/01/16 10:35:41;;;;;;;10.95;4.93;;;4.40;99.90;;;;;;5023144;28;20052;-84
2023/01/16 10:38:28;;;;;;;7.28;3.67;;;4.40;99.90;;;;;;4988980;28;20900;-84
2023/01/16 10:40:55;;;;;;;6.07;3.50;;;4.50;99.90;;;;;;4987164;28;20054;-84
2023/01/16 10:51:48;;;;;;;7.88;3.75;;;4.40;99.90;;;;;;5034180;27;20074;-84
2023/01/16 10:54:14;;;;;;;6.35;3.70;;;4.40;99.90;;;;;;4987827;28;20553;-85
2023/01/16 10:56:41;;;;;;;4.18;2.90;;;4.30;99.90;;;;;;4963642;28;20074;-84
2023/01/16 10:59:10;;;;;;;6.50;3.58;;;4.30;99.90;;;;;;4983135;28;20096;-85
2023/01/16 11:01:37;;;;;;;5.75;3.15;;;4.30;99.90;;;;;;4980361;28;20065;-85
2023/01/16 11:04:05;;;;;;;5.47;3.20;;;4.20;99.90;;;;;;4964406;28;20050;-85
2023/01/16 11:06:31;;;;;;;3.63;2.65;;;4.10;99.90;;;;;;4981213;28;20234;-84
2023/01/16 11:09:02;;;;;;;5.78;2.80;;;4.10;99.90;;;;;;4985143;28;20444;-85
2023/01/16 11:20:31;;;;;;;6.03;3.10;;;3.90;99.90;;;;;;5011687;28;20084;-86
2023/01/16 11:23:18;;;;;;;3.28;2.33;;;3.90;99.90;;;;;;4996070;28;20556;-85
2023/01/16 11:25:47;;;;;;;3.30;2.63;;;3.90;99.90;;;;;;4977375;28;20082;-86
2023/01/16 11:28:19;;;;;;;3.28;2.63;;;3.70;99.90;;;;;;4972996;28;20070;-85
2023/01/16 11:30:47;;;;;;;4.25;2.60;;;3.70;99.90;;;;;;5005311;28;20619;-85
2023/01/16 11:33:21;;;;;;;3.08;2.58;;;3.70;99.90;;;;;;4986243;28;20065;-85
2023/01/16 11:35:56;;;;;;;4.22;2.30;;;3.70;99.90;;;;;;4979894;28;20138;-85
2023/01/16 11:38:23;;;;;;;6.07;2.70;;;3.70;99.90;;;;;;4985910;28;20077;-85
2023/01/16 11:40:52;;;;;;;4.20;2.80;;;3.70;99.90;;;;;;4987271;28;20062;-85
2023/01/16 11:46:25;;;;;;;5.13;3.22;;;3.70;99.90;;;;;;4990267;28;20043;-83
2023/01/16 11:48:58;;;;;;;2.33;2.15;;;3.70;99.90;;;;;;4990626;28;20064;-84
2023/01/16 11:51:28;;;;;;;5.45;3.22;;;3.70;99.90;;;;;;4988858;28;20070;-85
2023/01/16 11:53:56;;;;;;;3.95;2.75;;;3.60;99.90;;;;;;4961128;28;20090;-85
2023/01/16 11:56:24;;;;;;;3.97;2.78;;;3.70;99.90;;;;;;5005215;28;20040;-85
2023/01/16 11:59:06;;;;;;;2.60;2.40;;;3.70;99.90;;;;;;5016616;28;20089;-84
2023/01/16 12:08:08;;;;;;;4.95;3.15;;;3.70;99.90;;;;;;4975114;28;20502;-86
2023/01/16 12:10:40;;;;;;;4.15;3.03;;;3.70;99.90;;;;;;4980988;28;20043;-86
2023/01/16 12:16:22;;;;;;;5.35;3.22;;;3.70;99.90;;;;;;4986585;28;20042;-86
2023/01/16 12:19:05;;;;;;;4.50;3.15;;;3.70;99.90;;;;;;4993337;28;20459;-86
2023/01/16 12:21:34;;;;;;;6.30;3.90;;;3.80;99.90;;;;;;4980269;28;20054;-86
2023/01/16 12:24:18;;;;;;;4.78;3.40;;;3.80;99.90;;;;;;4991944;28;20057;-86
2023/01/16 12:27:05;;;;;;;2.90;2.60;;;3.80;99.90;;;;;;5009455;28;20410;-86
2023/01/16 12:29:51;;;;;;;3.92;2.85;;;3.80;99.90;;;;;;4995951;28;20161;-85
2023/01/16 12:32:49;;;;;;;4.25;2.95;;;3.80;99.90;;;;;;4996150;28;20162;-85
2023/01/16 12:35:27;;;;;;;3.75;3.10;;;3.80;99.90;;;;;;4988579;28;20050;-86
2023/01/16 12:38:11;;;;;;;3.97;3.28;;;3.80;99.90;;;;;;5022557;27;20038;-86
2023/01/16 12:40:44;;;;;;;5.13;3.17;;;3.90;99.90;;;;;;5017294;28;20093;-86
2023/01/16 12:43:26;;;;;;;4.38;3.05;;;3.90;99.90;;;;;;4990706;28;20042;-86
2023/01/16 12:45:56;;;;;;;3.38;2.97;;;3.90;99.90;;;;;;4984577;28;20043;-86
2023/01/16 12:48:54;;;;;;;3.30;2.80;;;3.90;99.90;;;;;;5049356;27;20494;-86
2023/01/16 12:51:28;;;;;;;5.53;3.50;;;3.90;99.90;;;;;;5009725;28;20049;-86
2023/01/16 12:54:25;;;;;;;4.07;3.10;;;4.00;99.90;;;;;;4972908;28;20043;-86
2023/01/16 12:57:24;;;;;;;6.13;3.75;;;4.00;99.90;;;;;;4988677;28;20087;-85
2023/01/16 13:00:04;;;;;;;5.38;3.65;;;4.10;99.90;;;;;;5007591;28;20036;-86
2023/01/16 13:02:45;;;;;;;8.73;3.60;;;4.10;99.90;;;;;;4990156;28;20085;-85
2023/01/16 13:05:18;;;;;;;6.82;3.67;;;4.10;99.90;;;;;;4972233;28;20038;-86
2023/01/16 13:07:55;;;;;;;5.10;3.35;;;4.10;99.90;;;;;;4990260;28;20081;-86
2023/01/16 13:13:24;;;;;;;7.65;3.45;;;4.10;99.90;;;;;;4995273;28;20051;-86
2023/01/16 13:16:19;;;;;;;7.47;3.70;;;4.10;99.90;;;;;;4997403;28;20114;-86
2023/01/16 13:18:46;;;;;;;5.65;3.90;;;4.20;99.90;;;;;;4988602;28;20074;-86
2023/01/16 13:21:18;;;;;;;7.00;4.20;;;4.20;99.90;;;;;;5008582;28;20038;-86
2023/01/16 13:23:54;;;;;;;5.22;3.20;;;4.20;99.90;;;;;;5030656;28;20379;-86
2023/01/16 13:26:21;;;;;;;4.95;3.05;;;4.20;99.90;;;;;;4988649;28;20330;-85
2023/01/16 13:28:55;;;;;;;5.15;3.60;;;4.20;99.90;;;;;;4992688;28;20046;-86
2023/01/16 13:31:33;;;;;;;5.47;3.08;;;4.30;99.90;;;;;;4989220;28;20046;-86
2023/01/16 13:34:11;;;;;;;6.32;3.95;;;4.30;99.90;;;;;;5020133;28;20071;-86
2023/01/16 13:36:52;;;;;;;4.78;3.50;;;4.30;99.90;;;;;;4998724;28;20074;-86
2023/01/16 13:39:56;;;;;;;5.63;3.80;;;4.30;99.90;;;;;;5019520;28;20053;-85
2023/01/16 13:42:25;;;;;;;5.60;3.75;;;4.30;99.90;;;;;;4973158;28;20062;-86
2023/01/16 13:47:43;;;;;;;12.43;6.32;;;4.40;99.90;;;;;;5005475;28;20082;-86
2023/01/16 13:50:25;;;;;;;7.07;4.60;;;4.40;99.90;;;;;;4993938;28;20034;-86
2023/01/16 13:52:56;;;;;;;7.07;4.13;;;4.40;99.90;;;;;;4964956;28;20043;-85
2023/01/16 13:55:39;;;;;;;7.65;3.80;;;4.40;99.90;;;;;;4996113;28;20433;-85
2023/01/16 13:58:15;;;;;;;8.93;4.90;;;4.40;99.90;;;;;;4984449;28;20036;-86
2023/01/16 14:00:42;;;;;;;7.10;4.53;;;4.40;99.90;;;;;;5013182;28;20046;-85
2023/01/16 14:03:19;;;;;;;7.05;5.00;;;4.50;99.90;;;;;;4982663;28;20041;-86
2023/01/16 14:06:08;;;;;;;7.32;5.00;;;4.50;99.90;;;;;;4997160;28;20073;-85
2023/01/16 14:09:06;;;;;;;4.63;3.65;;;4.50;99.90;;;;;;4990288;28;20080;-85
2023/01/16 14:11:38;;;;;;;7.00;4.68;;;4.50;99.90;;;;;;4987557;28;20579;-86
2023/01/16 14:17:16;;;;;;;8.60;4.65;;;4.50;99.90;;;;;;4989214;28;20494;-85
2023/01/16 14:20:00;;;;;;;7.95;4.57;;;4.50;99.90;;;;;;4986686;28;20118;-85